createdAt,value
2018-09-15T00:01:25.937Z,954.75
2018-09-15T00:03:52.290Z,954.78
2018-09-15T00:06:18.654Z,954.84
2018-09-15T00:08:44.960Z,954.79
2018-09-15T00:11:11.282Z,954.82
2018-09-15T00:13:37.600Z,954.84
2018-09-15T00:16:03.973Z,954.81
2018-09-15T00:18:30.305Z,954.80
2018-09-15T00:20:56.621Z,954.76
2018-09-15T00:23:22.996Z,954.72
2018-09-15T00:25:49.314Z,954.76
2018-09-15T00:28:15.643Z,954.69
2018-09-15T00:30:41.981Z,954.69
2018-09-15T00:33:08.304Z,954.70
2018-09-15T00:35:34.622Z,954.78
2018-09-15T00:38:00.938Z,954.74
2018-09-15T00:40:27.256Z,954.78
2018-09-15T00:42:53.568Z,954.83
2018-09-15T00:45:19.902Z,954.83
2018-09-15T00:47:46.260Z,954.87
2018-09-15T00:50:12.596Z,954.89
2018-09-15T00:52:38.955Z,954.86
2018-09-15T00:57:31.411Z,954.88
2018-09-15T00:59:57.761Z,954.90
2018-09-15T01:02:24.072Z,954.91
2018-09-15T01:04:50.425Z,954.86
2018-09-15T01:07:16.745Z,954.86
2018-09-15T01:09:43.061Z,954.87
2018-09-15T01:12:09.433Z,954.79
2018-09-15T01:14:35.684Z,954.84
2018-09-15T01:17:01.998Z,954.86
2018-09-15T01:19:28.310Z,954.88
2018-09-15T01:21:54.627Z,954.87
2018-09-15T01:24:20.950Z,954.95
2018-09-15T01:26:47.264Z,954.91
2018-09-15T01:29:13.575Z,954.97
2018-09-15T01:31:39.895Z,954.96
2018-09-15T01:34:06.256Z,954.90
2018-09-15T01:36:32.566Z,954.90
2018-09-15T01:38:58.883Z,954.91
2018-09-15T01:41:25.205Z,954.89
2018-09-15T01:43:51.515Z,954.84
2018-09-15T01:46:17.823Z,954.83
2018-09-15T01:48:44.134Z,954.83
2018-09-15T01:51:10.448Z,954.81
2018-09-15T01:53:36.806Z,954.84
2018-09-15T01:56:03.120Z,954.73
2018-09-15T01:58:29.423Z,954.74
2018-09-15T02:00:55.740Z,954.77
2018-09-15T02:03:22.147Z,954.73
2018-09-15T02:05:48.506Z,954.77
2018-09-15T02:08:14.818Z,954.75
2018-09-15T02:10:41.122Z,954.79
2018-09-15T02:13:07.446Z,954.78
2018-09-15T02:15:33.756Z,954.74
2018-09-15T02:18:00.073Z,954.76
2018-09-15T02:20:26.383Z,954.74
2018-09-15T02:22:52.709Z,954.87
2018-09-15T02:25:19.018Z,954.86
2018-09-15T02:27:45.333Z,954.86
2018-09-15T02:30:11.659Z,954.83
2018-09-15T02:32:37.977Z,954.83
2018-09-15T02:35:04.294Z,954.76
2018-09-15T02:37:30.662Z,954.78
2018-09-15T02:39:57.020Z,954.76
2018-09-15T02:42:23.331Z,954.77
2018-09-15T02:44:49.658Z,954.75
2018-09-15T02:47:15.970Z,954.77
2018-09-15T02:49:42.282Z,954.78
2018-09-15T02:52:08.625Z,954.84
2018-09-15T02:54:34.952Z,954.94
2018-09-15T02:57:01.330Z,954.90
2018-09-15T02:59:27.645Z,954.92
2018-09-15T03:01:53.950Z,954.88
2018-09-15T03:04:20.286Z,954.91
2018-09-15T03:06:46.635Z,954.93
2018-09-15T03:09:12.955Z,954.95
2018-09-15T03:11:39.270Z,954.95
2018-09-15T03:14:05.592Z,955.00
2018-09-15T03:16:31.913Z,954.95
2018-09-15T03:18:58.272Z,955.02
2018-09-15T03:21:24.582Z,955.00
2018-09-15T03:23:50.935Z,954.95
2018-09-15T03:26:17.289Z,954.98
2018-09-15T03:28:43.601Z,954.97
2018-09-15T03:31:09.908Z,954.97
2018-09-15T03:33:36.227Z,954.96
2018-09-15T03:36:02.535Z,955.03
2018-09-15T03:38:28.848Z,955.04
2018-09-15T03:40:55.160Z,955.10
2018-09-15T03:43:21.508Z,955.10
2018-09-15T03:45:47.818Z,955.10
2018-09-15T03:48:14.138Z,955.05
2018-09-15T03:50:40.466Z,955.12
2018-09-15T03:53:06.776Z,955.08
2018-09-15T03:55:33.095Z,955.09
2018-09-15T03:57:59.406Z,955.13
2018-09-15T04:00:25.726Z,955.19
2018-09-15T04:02:52.060Z,955.30
2018-09-15T04:05:18.378Z,955.31
2018-09-15T04:07:44.687Z,955.27
2018-09-15T04:10:11.007Z,955.33
2018-09-15T04:12:37.313Z,955.34
2018-09-15T04:15:03.629Z,955.38
2018-09-15T04:17:29.945Z,955.45
2018-09-15T04:19:56.258Z,955.38
2018-09-15T04:22:23.579Z,955.43
2018-09-15T04:24:49.893Z,955.42
2018-09-15T04:27:16.231Z,955.42
2018-09-15T04:29:42.549Z,955.43
2018-09-15T04:32:08.863Z,955.39
2018-09-15T04:34:35.279Z,955.43
2018-09-15T04:37:01.595Z,955.44
2018-09-15T04:39:27.960Z,955.49
2018-09-15T04:41:54.282Z,955.55
2018-09-15T04:44:20.587Z,955.58
2018-09-15T04:46:46.904Z,955.58
2018-09-15T04:49:13.272Z,955.63
2018-09-15T04:51:39.556Z,955.71
2018-09-15T04:54:05.875Z,955.69
2018-09-15T04:56:32.183Z,955.69
2018-09-15T04:58:58.505Z,955.73
2018-09-15T05:01:24.816Z,955.78
2018-09-15T05:03:51.129Z,955.71
2018-09-15T05:06:17.435Z,955.78
2018-09-15T05:08:43.750Z,955.79
2018-09-15T05:11:10.064Z,955.80
2018-09-15T05:13:36.684Z,955.78
2018-09-15T05:16:03.018Z,955.72
2018-09-15T05:18:29.327Z,955.78
2018-09-15T05:20:55.642Z,955.79
2018-09-15T05:23:21.957Z,955.81
2018-09-15T05:25:48.277Z,955.81
2018-09-15T05:28:14.593Z,955.79
2018-09-15T05:30:40.908Z,955.79
2018-09-15T05:33:07.223Z,955.85
2018-09-15T05:35:33.528Z,955.87
2018-09-15T05:37:59.838Z,955.91
2018-09-15T05:40:26.144Z,955.84
2018-09-15T05:42:52.456Z,955.83
2018-09-15T05:45:19.135Z,955.87
2018-09-15T05:47:45.457Z,955.92
2018-09-15T05:50:11.764Z,955.96
2018-09-15T05:52:38.078Z,955.90
2018-09-15T05:55:04.388Z,955.93
2018-09-15T05:57:30.711Z,955.99
2018-09-15T05:59:57.042Z,955.99
2018-09-15T06:02:23.353Z,955.98
2018-09-15T06:04:49.667Z,956.07
2018-09-15T06:07:15.987Z,956.10
2018-09-15T06:09:42.295Z,956.04
2018-09-15T06:12:08.615Z,956.02
2018-09-15T06:14:34.928Z,956.01
2018-09-15T06:17:01.272Z,955.99
2018-09-15T06:19:27.587Z,956.01
2018-09-15T06:21:53.899Z,956.02
2018-09-15T06:24:20.226Z,956.03
2018-09-15T06:26:46.596Z,956.01
2018-09-15T06:29:12.893Z,956.06
2018-09-15T06:31:39.213Z,956.07
2018-09-15T06:34:05.530Z,956.07
2018-09-15T06:36:31.852Z,956.13
2018-09-15T06:38:58.188Z,956.13
2018-09-15T06:41:24.511Z,956.17
2018-09-15T06:43:50.825Z,956.11
2018-09-15T06:46:17.141Z,956.11
2018-09-15T06:48:43.467Z,956.19
2018-09-15T06:51:09.781Z,956.18
2018-09-15T06:53:38.956Z,956.19
2018-09-15T06:56:05.266Z,956.20
2018-09-15T06:58:31.611Z,956.25
2018-09-15T07:00:57.957Z,956.30
2018-09-15T07:03:24.275Z,956.30
2018-09-15T07:05:50.593Z,956.32
2018-09-15T07:08:21.168Z,956.34
2018-09-15T07:10:46.234Z,956.26
2018-09-15T07:13:12.547Z,956.29
2018-09-15T07:15:38.901Z,956.32
2018-09-15T07:18:05.220Z,956.30
2018-09-15T07:20:31.528Z,956.26
2018-09-15T07:22:57.853Z,956.30
2018-09-15T07:25:24.182Z,956.23
2018-09-15T07:27:50.793Z,956.24
2018-09-15T07:30:17.119Z,956.23
2018-09-15T07:32:43.415Z,956.20
2018-09-15T07:35:09.739Z,956.23
2018-09-15T07:37:36.104Z,956.18
2018-09-15T07:40:02.381Z,956.25
2018-09-15T07:42:28.728Z,956.22
2018-09-15T07:44:55.045Z,956.20
2018-09-15T07:47:21.357Z,956.22
2018-09-15T07:49:47.674Z,956.21
2018-09-15T07:52:14.003Z,956.23
2018-09-15T07:54:40.317Z,956.14
2018-09-15T07:57:06.634Z,956.23
2018-09-15T07:59:32.952Z,956.20
2018-09-15T08:01:59.297Z,956.18
2018-09-15T08:04:25.643Z,956.23
2018-09-15T08:06:51.969Z,956.30
2018-09-15T08:09:18.275Z,956.27
2018-09-15T08:11:44.608Z,956.19
2018-09-15T08:14:10.956Z,956.21
2018-09-15T08:16:37.253Z,956.25
2018-09-15T08:19:03.621Z,956.25
2018-09-15T08:21:29.951Z,956.16
2018-09-15T08:23:56.260Z,956.14
2018-09-15T08:26:22.675Z,956.21
2018-09-15T08:28:48.927Z,956.21
2018-09-15T08:31:15.244Z,956.19
2018-09-15T08:33:41.561Z,956.17
2018-09-15T08:36:07.873Z,956.12
2018-09-15T08:38:34.247Z,956.06
2018-09-15T08:41:00.581Z,956.11
2018-09-15T08:43:26.946Z,956.11
2018-09-15T08:45:53.275Z,956.15
2018-09-15T08:48:19.674Z,956.06
2018-09-15T08:50:45.923Z,956.18
2018-09-15T08:53:12.236Z,956.10
2018-09-15T08:55:38.555Z,956.07
2018-09-15T08:58:04.889Z,955.99
2018-09-15T09:00:31.220Z,956.03
2018-09-15T09:02:57.551Z,955.99
2018-09-15T09:05:23.879Z,955.97
2018-09-15T09:07:50.217Z,955.92
2018-09-15T09:10:16.540Z,955.98
2018-09-15T09:12:42.867Z,955.85
2018-09-15T09:15:09.184Z,955.83
2018-09-15T09:17:36.014Z,955.86
2018-09-15T09:20:02.441Z,955.85
2018-09-15T09:22:28.666Z,955.80
2018-09-15T09:24:55.005Z,955.80
2018-09-15T09:27:21.322Z,955.78
2018-09-15T09:29:47.637Z,955.79
2018-09-15T09:32:14.031Z,955.77
2018-09-15T09:34:40.329Z,955.76
2018-09-15T09:37:06.704Z,955.75
2018-09-15T09:39:33.041Z,955.71
2018-09-15T09:41:59.373Z,955.69
2018-09-15T09:44:25.735Z,955.65
2018-09-15T09:46:52.072Z,955.68
2018-09-15T09:49:18.385Z,955.64
2018-09-15T09:51:44.848Z,955.71
2018-09-15T09:54:11.119Z,955.58
2018-09-15T09:56:37.581Z,955.62
2018-09-15T09:59:03.876Z,955.59
2018-09-15T10:01:30.293Z,955.53
2018-09-15T10:03:56.630Z,955.60
2018-09-15T10:06:22.936Z,955.53
2018-09-15T10:08:49.247Z,955.50
2018-09-15T10:11:15.616Z,955.48
2018-09-15T10:13:41.951Z,955.46
2018-09-15T10:16:08.311Z,955.47
2018-09-15T10:18:34.604Z,955.38
2018-09-15T10:21:00.917Z,955.41
2018-09-15T10:23:27.274Z,955.37
2018-09-15T10:25:53.649Z,955.36
2018-09-15T10:28:19.967Z,955.32
2018-09-15T10:30:46.334Z,955.28
2018-09-15T10:33:15.668Z,955.30
2018-09-15T10:35:41.997Z,955.15
2018-09-15T10:38:08.310Z,955.35
2018-09-15T10:40:34.618Z,955.29
2018-09-15T10:43:00.956Z,955.30
2018-09-15T10:45:27.259Z,955.22
2018-09-15T10:47:53.569Z,955.20
2018-09-15T10:50:19.913Z,955.21
2018-09-15T10:52:46.217Z,955.22
2018-09-15T10:55:12.530Z,955.20
2018-09-15T10:57:38.865Z,955.20
2018-09-15T11:00:05.175Z,955.26
2018-09-15T11:02:31.516Z,955.17
2018-09-15T11:04:57.895Z,955.11
2018-09-15T11:07:24.203Z,955.12
2018-09-15T11:09:50.535Z,955.10
2018-09-15T11:12:16.848Z,955.07
2018-09-15T11:14:43.164Z,955.02
2018-09-15T11:17:09.500Z,955.02
2018-09-15T11:19:35.841Z,955.01
2018-09-15T11:22:02.209Z,954.92
2018-09-15T11:24:28.540Z,954.89
2018-09-15T11:26:54.873Z,954.92
2018-09-15T11:29:21.253Z,954.93
2018-09-15T11:31:47.590Z,954.87
2018-09-15T11:34:13.982Z,954.85
2018-09-15T11:36:40.240Z,954.88
2018-09-15T11:39:06.553Z,954.84
2018-09-15T11:41:32.890Z,954.88
2018-09-15T11:43:59.223Z,954.74
2018-09-15T11:46:25.584Z,954.82
2018-09-15T11:48:51.914Z,954.81
2018-09-15T11:51:18.226Z,954.85
2018-09-15T11:53:44.614Z,954.85
2018-09-15T11:56:10.927Z,954.84
2018-09-15T11:58:37.250Z,954.84
2018-09-15T12:01:03.599Z,954.78
2018-09-15T12:03:29.915Z,954.76
2018-09-15T12:05:56.235Z,954.77
2018-09-15T12:08:22.587Z,954.71
2018-09-15T12:10:48.896Z,954.80
2018-09-15T12:13:15.228Z,954.78
2018-09-15T12:15:41.616Z,954.74
2018-09-15T12:18:07.942Z,954.73
2018-09-15T12:20:34.272Z,954.72
2018-09-15T12:23:01.931Z,954.79
2018-09-15T12:25:26.921Z,954.78
2018-09-15T12:27:53.295Z,954.82
2018-09-15T12:30:19.625Z,954.77
2018-09-15T12:32:45.937Z,954.74
2018-09-15T12:35:12.275Z,954.80
2018-09-15T12:37:38.594Z,954.75
2018-09-15T12:40:04.921Z,954.72
2018-09-15T12:42:31.252Z,954.71
2018-09-15T12:44:57.643Z,954.69
2018-09-15T12:47:23.922Z,954.74
2018-09-15T12:49:50.292Z,954.75
2018-09-15T12:52:16.733Z,954.77
2018-09-15T12:54:43.001Z,954.70
2018-09-15T12:57:09.324Z,954.67
2018-09-15T12:59:35.663Z,954.70
2018-09-15T13:02:02.018Z,954.68
2018-09-15T13:04:28.329Z,954.77
2018-09-15T13:06:54.662Z,954.72
2018-09-15T13:09:20.977Z,954.72
2018-09-15T13:11:47.687Z,954.79
2018-09-15T13:14:13.996Z,954.73
2018-09-15T13:16:40.328Z,954.67
2018-09-15T13:19:06.705Z,954.64
2018-09-15T13:21:33.019Z,954.61
2018-09-15T13:23:59.351Z,954.54
2018-09-15T13:26:25.667Z,954.55
2018-09-15T13:28:51.975Z,954.55
2018-09-15T13:31:18.374Z,954.55
2018-09-15T13:33:44.676Z,954.53
2018-09-15T13:36:10.995Z,954.50
2018-09-15T13:38:37.312Z,954.49
2018-09-15T13:41:03.641Z,954.54
2018-09-15T13:43:29.963Z,954.48
2018-09-15T13:45:56.300Z,954.47
2018-09-15T13:48:22.637Z,954.56
2018-09-15T13:50:48.947Z,954.58
2018-09-15T13:53:15.280Z,954.59
2018-09-15T13:55:41.579Z,954.56
2018-09-15T13:58:07.891Z,954.58
2018-09-15T14:00:34.224Z,954.48
2018-09-15T14:03:00.624Z,954.55
2018-09-15T14:05:26.936Z,954.58
2018-09-15T14:07:53.279Z,954.62
2018-09-15T14:10:19.612Z,954.60
2018-09-15T14:12:45.956Z,954.56
2018-09-15T14:15:12.289Z,954.65
2018-09-15T14:17:38.604Z,954.61
2018-09-15T14:20:04.981Z,954.68
2018-09-15T14:22:31.355Z,954.59
2018-09-15T14:24:57.660Z,954.60
2018-09-15T14:27:23.995Z,954.60
2018-09-15T14:29:50.309Z,954.65
2018-09-15T14:32:16.655Z,954.62
2018-09-15T14:34:43.003Z,954.67
2018-09-15T14:37:09.320Z,954.64
2018-09-15T14:39:35.634Z,954.66
2018-09-15T14:42:02.035Z,954.66
2018-09-15T14:44:28.341Z,954.65
2018-09-15T14:46:54.694Z,954.70
2018-09-15T14:49:21.028Z,954.69
2018-09-15T14:51:47.387Z,954.74
2018-09-15T14:54:13.700Z,954.76
2018-09-15T14:56:40.033Z,954.78
2018-09-15T14:59:06.344Z,954.77
2018-09-15T15:01:32.696Z,954.77
2018-09-15T15:04:16.215Z,954.79
2018-09-15T15:06:28.847Z,954.80
2018-09-15T15:08:55.181Z,954.78
2018-09-15T15:11:21.490Z,954.75
2018-09-15T15:13:48.014Z,954.67
2018-09-15T15:16:14.300Z,954.78
2018-09-15T15:18:40.634Z,954.77
2018-09-15T15:21:06.939Z,954.74
2018-09-15T15:23:33.350Z,954.82
2018-09-15T15:25:59.704Z,954.83
2018-09-15T15:28:26.014Z,954.82
2018-09-15T15:30:52.318Z,954.94
2018-09-15T15:33:18.669Z,954.94
2018-09-15T15:35:45.021Z,955.00
2018-09-15T15:38:11.359Z,955.01
2018-09-15T15:40:44.056Z,954.93
2018-09-15T15:43:10.352Z,955.06
2018-09-15T15:45:36.661Z,955.08
2018-09-15T15:48:03.033Z,955.15
2018-09-15T15:50:29.394Z,955.17
2018-09-15T15:52:55.699Z,955.18
2018-09-15T15:55:22.034Z,955.14
2018-09-15T15:57:48.380Z,955.18
2018-09-15T16:00:14.714Z,955.18
2018-09-15T16:02:41.093Z,955.30
2018-09-15T16:05:07.425Z,955.26
2018-09-15T16:07:33.804Z,955.27
2018-09-15T16:10:00.077Z,955.30
2018-09-15T16:12:26.392Z,955.34
2018-09-15T16:14:52.731Z,955.42
2018-09-15T16:17:19.072Z,955.43
2018-09-15T16:19:45.424Z,955.48
2018-09-15T16:22:11.735Z,955.53
2018-09-15T16:24:38.072Z,955.57
2018-09-15T16:27:04.394Z,955.55
2018-09-15T16:29:30.699Z,955.67
2018-09-15T16:31:57.014Z,955.74
2018-09-15T16:34:23.344Z,955.68
2018-09-15T16:36:49.650Z,955.69
2018-09-15T16:39:15.984Z,955.77
2018-09-15T16:41:42.315Z,955.72
2018-09-15T16:44:08.655Z,955.75
2018-09-15T16:46:34.972Z,955.74
2018-09-15T16:49:01.305Z,955.71
2018-09-15T16:51:27.619Z,955.68
2018-09-15T16:53:53.954Z,955.66
2018-09-15T16:56:20.265Z,955.63
2018-09-15T16:58:46.595Z,955.75
2018-09-15T17:01:12.903Z,955.76
2018-09-15T17:03:39.228Z,955.73
2018-09-15T17:06:05.538Z,955.77
2018-09-15T17:08:31.852Z,955.80
2018-09-15T17:10:58.170Z,955.78
2018-09-15T17:13:24.485Z,955.85
2018-09-15T17:15:50.851Z,955.85
2018-09-15T17:18:17.128Z,955.89
2018-09-15T17:20:43.486Z,955.99
2018-09-15T17:23:09.808Z,955.99
2018-09-15T17:25:36.120Z,956.06
2018-09-15T17:28:02.433Z,956.02
2018-09-15T17:30:28.754Z,956.09
2018-09-15T17:32:55.068Z,956.15
2018-09-15T17:35:21.385Z,956.21
2018-09-15T17:37:50.458Z,956.25
2018-09-15T17:40:16.840Z,956.31
2018-09-15T17:42:43.147Z,956.37
2018-09-15T17:45:09.462Z,956.39
2018-09-15T17:47:35.786Z,956.36
2018-09-15T17:50:02.102Z,956.44
2018-09-15T17:52:28.475Z,956.42
2018-09-15T17:54:54.816Z,956.44
2018-09-15T17:57:21.091Z,956.44
2018-09-15T17:59:47.418Z,956.51
2018-09-15T18:02:13.768Z,956.43
2018-09-15T18:04:40.081Z,956.51
2018-09-15T18:07:06.400Z,956.51
2018-09-15T18:09:32.838Z,956.49
2018-09-15T18:11:59.088Z,956.55
2018-09-15T18:14:25.412Z,956.53
2018-09-15T18:16:51.750Z,956.57
2018-09-15T18:19:18.083Z,956.62
2018-09-15T18:21:44.394Z,956.68
2018-09-15T18:24:10.714Z,956.70
2018-09-15T18:26:37.039Z,956.72
2018-09-15T18:29:04.004Z,956.76
2018-09-15T18:31:30.323Z,956.77
2018-09-15T18:33:56.741Z,956.74
2018-09-15T18:36:23.131Z,956.78
2018-09-15T18:38:49.339Z,956.84
2018-09-15T18:41:15.661Z,956.84
2018-09-15T18:43:41.971Z,956.88
2018-09-15T18:46:08.284Z,957.03
2018-09-15T18:48:34.598Z,957.03
2018-09-15T18:51:00.915Z,957.04
2018-09-15T18:53:27.231Z,957.05
2018-09-15T18:55:53.577Z,957.10
2018-09-15T18:58:19.909Z,957.12
2018-09-15T19:00:46.224Z,957.15
2018-09-15T19:03:12.528Z,957.21
2018-09-15T19:05:38.847Z,957.23
2018-09-15T19:08:05.166Z,957.24
2018-09-15T19:10:31.529Z,957.27
2018-09-15T19:12:57.840Z,957.34
2018-09-15T19:15:24.162Z,957.33
2018-09-15T19:17:50.534Z,957.37
2018-09-15T19:20:16.856Z,957.36
2018-09-15T19:22:43.187Z,957.42
2018-09-15T19:25:09.546Z,957.39
2018-09-15T19:27:35.868Z,957.48
2018-09-15T19:30:02.189Z,957.48
2018-09-15T19:32:28.504Z,957.52
2018-09-15T19:34:54.814Z,957.47
2018-09-15T19:37:21.149Z,957.49
2018-09-15T19:39:47.476Z,957.52
2018-09-15T19:42:13.801Z,957.55
2018-09-15T19:44:40.121Z,957.54
2018-09-15T19:47:06.439Z,957.56
2018-09-15T19:49:32.755Z,957.59
2018-09-15T19:51:59.096Z,957.68
2018-09-15T19:54:25.413Z,957.71
2018-09-15T19:56:51.754Z,957.68
2018-09-15T19:59:18.183Z,957.68
2018-09-15T20:01:44.388Z,957.69
2018-09-15T20:04:10.711Z,957.72
2018-09-15T20:06:37.027Z,957.66
2018-09-15T20:09:03.330Z,957.66
2018-09-15T20:11:29.658Z,957.59
2018-09-15T20:13:55.975Z,957.60
2018-09-15T20:16:22.292Z,957.57
2018-09-15T20:18:48.649Z,957.55
2018-09-15T20:21:14.990Z,957.60
2018-09-15T20:23:41.400Z,957.60
2018-09-15T20:26:07.702Z,957.64
2018-09-15T20:28:34.009Z,957.69
2018-09-15T20:31:00.329Z,957.74
2018-09-15T20:33:26.647Z,957.77
2018-09-15T20:35:52.961Z,957.80
2018-09-15T20:38:19.283Z,957.84
2018-09-15T20:40:45.612Z,957.88
2018-09-15T20:43:11.920Z,957.92
2018-09-15T20:45:38.283Z,957.91
2018-09-15T20:48:04.617Z,957.89
2018-09-15T20:50:30.941Z,957.92
2018-09-15T20:52:57.251Z,957.87
2018-09-15T20:55:23.605Z,957.87
2018-09-15T20:57:49.915Z,957.92
2018-09-15T21:00:16.260Z,957.96
2018-09-15T21:02:42.590Z,957.96
2018-09-15T21:05:08.909Z,957.99
2018-09-15T21:07:35.229Z,958.01
2018-09-15T21:10:01.538Z,958.02
2018-09-15T21:12:27.881Z,958.03
2018-09-15T21:14:54.212Z,958.01
2018-09-15T21:17:20.522Z,958.04
2018-09-15T21:19:46.843Z,958.01
2018-09-15T21:22:13.166Z,958.09
2018-09-15T21:24:39.507Z,958.02
2018-09-15T21:27:05.830Z,958.11
2018-09-15T21:29:32.132Z,958.12
2018-09-15T21:31:58.455Z,958.11
2018-09-15T21:34:24.763Z,958.08
2018-09-15T21:36:51.077Z,958.10
2018-09-15T21:39:17.445Z,958.13
2018-09-15T21:41:43.769Z,958.18
2018-09-15T21:44:10.080Z,958.17
2018-09-15T21:46:36.396Z,958.20
2018-09-15T21:49:02.733Z,958.23
2018-09-15T21:51:29.069Z,958.19
2018-09-15T21:53:55.390Z,958.28
2018-09-15T21:56:21.705Z,958.30
2018-09-15T21:58:48.018Z,958.33
2018-09-15T22:01:14.362Z,958.28
2018-09-15T22:03:40.678Z,958.30
2018-09-15T22:06:06.980Z,958.30
2018-09-15T22:08:33.298Z,958.32
2018-09-15T22:10:59.608Z,958.35
2018-09-15T22:13:26.068Z,958.38
2018-09-15T22:15:52.545Z,958.34
2018-09-15T22:18:18.816Z,958.32
2018-09-15T22:20:45.269Z,958.33
2018-09-15T22:23:11.700Z,958.35
2018-09-15T22:25:38.136Z,958.35
2018-09-15T22:28:04.449Z,958.33
2018-09-15T22:30:30.763Z,958.38
2018-09-15T22:32:57.110Z,958.40
2018-09-15T22:35:23.598Z,958.40
2018-09-15T22:37:49.994Z,958.38
2018-09-15T22:40:16.426Z,958.39
2018-09-15T22:42:42.859Z,958.43
2018-09-15T22:45:09.255Z,958.33
2018-09-15T22:47:35.726Z,958.38
2018-09-15T22:50:02.038Z,958.32
2018-09-15T22:52:28.492Z,958.29
2018-09-15T22:54:54.805Z,958.35
2018-09-15T22:57:21.254Z,958.39
2018-09-15T22:59:47.573Z,958.39
2018-09-15T23:02:13.884Z,958.40
2018-09-15T23:04:40.392Z,958.39
2018-09-15T23:07:06.674Z,958.42
2018-09-15T23:09:33.020Z,958.41
2018-09-15T23:11:59.327Z,958.35
2018-09-15T23:14:25.738Z,958.47
2018-09-15T23:16:52.214Z,958.45
2018-09-15T23:19:18.643Z,958.48
2018-09-15T23:21:44.957Z,958.49
2018-09-15T23:24:11.276Z,958.48
2018-09-15T23:26:37.590Z,958.55
2018-09-15T23:29:03.904Z,958.57
2018-09-15T23:31:30.214Z,958.56
2018-09-15T23:33:56.530Z,958.51
2018-09-15T23:36:22.842Z,958.57
2018-09-15T23:38:49.173Z,958.57
2018-09-15T23:41:15.474Z,958.49
2018-09-15T23:43:41.798Z,958.56
2018-09-15T23:46:08.115Z,958.56
2018-09-15T23:48:34.433Z,958.56
2018-09-15T23:51:00.751Z,958.50
2018-09-15T23:53:27.061Z,958.51
2018-09-15T23:55:53.374Z,958.56
2018-09-15T23:58:19.696Z,958.48
